Time;durP1;ratioP1;P1;durP2;ratioP2;P2;SDS_P1;SDS_P2;PMS_P1;PMS_P2;Temp;Humidity;BMP_temperature;BMP_pressure;BME280_temperature;BME280_humidity;BME280_pressure;Samples;Min_cycle;Max_cycle;Signal;HPM_P1;HPM_P2
2023/06/13 00:00:33;;;;;;;5.40;4.90;;;15.90;1.00;;;;;;4988353;28;20923;-75
2023/06/13 00:03:00;;;;;;;5.53;4.90;;;15.70;1.00;;;;;;4988973;28;20219;-72
2023/06/13 00:05:26;;;;;;;5.75;4.45;;;15.70;1.00;;;;;;4987794;28;20188;-74
2023/06/13 00:07:52;;;;;;;5.50;4.88;;;16.00;1.00;;;;;;4988853;28;20744;-73
2023/06/13 00:10:17;;;;;;;5.22;4.72;;;15.60;1.00;;;;;;4988372;28;20263;-75
2023/06/13 00:12:49;;;;;;;6.50;4.30;;;15.60;1.00;;;;;;4988800;28;20242;-73
2023/06/13 00:15:15;;;;;;;5.30;4.80;;;15.50;1.00;;;;;;4987595;28;20240;-74
2023/06/13 00:17:41;;;;;;;5.53;5.03;;;15.40;1.00;;;;;;4988528;28;20259;-74
2023/06/13 00:20:08;;;;;;;4.78;4.38;;;15.40;1.00;;;;;;4988255;28;20195;-73
2023/06/13 00:22:34;;;;;;;5.57;4.72;;;15.30;1.00;;;;;;4988186;28;20180;-73
2023/06/13 00:25:00;;;;;;;5.25;4.53;;;15.30;1.00;;;;;;4987259;28;20192;-72
2023/06/13 00:27:26;;;;;;;5.80;5.20;;;15.50;1.00;;;;;;4988228;28;20226;-73
2023/06/13 00:29:51;;;;;;;5.50;5.00;;;15.30;1.00;;;;;;4988406;28;20192;-74
2023/06/13 00:32:20;;;;;;;4.97;4.40;;;15.10;1.00;;;;;;4988070;28;20192;-72
2023/06/13 00:34:46;;;;;;;5.20;4.70;;;15.00;1.00;;;;;;4987534;28;20296;-74
2023/06/13 00:37:13;;;;;;;4.88;4.47;;;15.10;1.00;;;;;;4988164;28;20200;-75
2023/06/13 00:39:39;;;;;;;4.20;3.80;;;15.90;1.00;;;;;;4988338;28;20186;-73
2023/06/13 00:42:06;;;;;;;4.65;4.13;;;15.40;1.00;;;;;;4988027;28;20746;-73
2023/06/13 00:44:32;;;;;;;5.30;4.60;;;15.10;1.00;;;;;;4987742;28;20184;-74
2023/06/13 00:47:00;;;;;;;5.50;5.00;;;15.20;1.00;;;;;;4986698;28;20198;-73
2023/06/13 00:49:26;;;;;;;5.22;4.50;;;15.10;1.00;;;;;;4987932;28;20245;-74
2023/06/13 00:51:53;;;;;;;8.77;4.72;;;15.00;1.00;;;;;;4988803;28;20180;-76
2023/06/13 00:54:19;;;;;;;5.80;4.53;;;15.00;1.00;;;;;;4988294;28;20204;-74
2023/06/13 00:56:45;;;;;;;7.15;4.50;;;15.10;1.00;;;;;;4988689;28;20234;-76
2023/06/13 00:59:13;;;;;;;5.47;4.00;;;15.00;1.00;;;;;;4988569;28;20183;-76
2023/06/13 01:01:42;;;;;;;4.05;3.72;;;14.90;1.00;;;;;;4988439;28;20193;-76
2023/06/13 01:04:08;;;;;;;4.55;3.75;;;14.80;1.00;;;;;;4987596;28;20189;-76
2023/06/13 01:06:40;;;;;;;5.22;4.22;;;14.90;1.00;;;;;;4988111;28;20191;-75
2023/06/13 01:09:06;;;;;;;6.25;4.93;;;15.00;1.00;;;;;;5003267;28;20902;-75
2023/06/13 01:11:38;;;;;;;5.07;4.40;;;14.90;1.00;;;;;;4988119;28;20201;-74
2023/06/13 01:14:24;;;;;;;6.13;5.28;;;14.80;1.00;;;;;;4987502;28;20184;-75
2023/06/13 01:17:01;;;;;;;6.00;5.50;;;14.80;1.00;;;;;;4988223;28;21063;-76
2023/06/13 01:19:40;;;;;;;5.97;5.47;;;14.70;1.00;;;;;;4988088;28;20180;-74
2023/06/13 01:22:37;;;;;;;5.72;4.35;;;14.70;1.00;;;;;;4987715;28;20203;-76
2023/06/13 01:25:44;;;;;;;5.38;4.57;;;14.70;1.00;;;;;;4987303;28;20540;-73
2023/06/13 01:28:13;;;;;;;5.95;4.13;;;14.60;1.00;;;;;;4987514;28;20223;-74
2023/06/13 01:30:40;;;;;;;5.22;4.20;;;14.50;1.00;;;;;;4987404;28;20189;-74
2023/06/13 01:33:08;;;;;;;4.90;4.50;;;14.50;1.00;;;;;;4988171;28;20188;-75
2023/06/13 01:35:35;;;;;;;5.20;4.18;;;14.40;1.00;;;;;;4985927;28;20274;-73
2023/06/13 01:38:03;;;;;;;5.20;4.68;;;14.50;1.00;;;;;;4987475;28;20196;-73
2023/06/13 01:40:28;;;;;;;6.25;3.80;;;14.50;1.00;;;;;;4986770;28;20184;-75
2023/06/13 01:42:54;;;;;;;6.20;3.80;;;14.40;1.00;;;;;;4987126;28;20177;-74
2023/06/13 01:45:20;;;;;;;5.93;3.90;;;14.30;1.00;;;;;;4986579;28;20215;-74
2023/06/13 01:48:20;;;;;;;3.95;3.65;;;14.30;1.00;;;;;;4987748;28;20215;-74
2023/06/13 01:50:50;;;;;;;5.75;4.05;;;14.20;1.00;;;;;;4987804;28;20190;-74
2023/06/13 01:53:40;;;;;;;4.97;3.63;;;14.30;1.00;;;;;;4987780;28;20192;-74
2023/06/13 01:56:13;;;;;;;7.35;3.50;;;14.20;1.00;;;;;;4986391;28;20215;-74
2023/06/13 01:59:00;;;;;;;4.50;4.10;;;14.20;1.00;;;;;;4987542;28;20200;-72
2023/06/13 02:01:28;;;;;;;6.57;4.25;;;14.10;1.00;;;;;;4986802;28;20196;-74
2023/06/13 02:03:54;;;;;;;4.47;3.60;;;14.20;1.00;;;;;;4987498;28;20196;-73
2023/06/13 02:06:20;;;;;;;4.70;3.55;;;14.10;1.00;;;;;;4986227;28;20176;-75
2023/06/13 02:08:46;;;;;;;4.07;3.78;;;14.20;1.00;;;;;;4987301;28;20686;-74
2023/06/13 02:11:12;;;;;;;5.28;3.55;;;14.10;1.00;;;;;;4986553;28;20184;-73
2023/06/13 02:13:37;;;;;;;4.35;3.70;;;14.10;1.00;;;;;;4987058;28;20188;-74
2023/06/13 02:16:03;;;;;;;6.00;3.88;;;14.10;1.00;;;;;;4986078;28;20705;-74
2023/06/13 02:18:30;;;;;;;3.60;3.30;;;14.10;1.00;;;;;;4986990;28;20242;-74
2023/06/13 02:20:56;;;;;;;5.22;3.70;;;14.20;1.00;;;;;;4986783;28;20238;-73
2023/06/13 02:23:23;;;;;;;4.15;3.75;;;14.00;1.00;;;;;;4986956;28;20536;-72
2023/06/13 02:25:51;;;;;;;4.28;3.88;;;14.20;1.00;;;;;;4985836;28;20243;-76
2023/06/13 02:28:17;;;;;;;4.35;3.95;;;14.10;1.00;;;;;;4986674;28;20834;-74
2023/06/13 02:30:44;;;;;;;4.28;3.85;;;14.10;1.00;;;;;;4986453;28;20238;-75
2023/06/13 02:33:13;;;;;;;4.53;3.75;;;14.00;1.00;;;;;;4986245;28;20215;-73
2023/06/13 02:35:39;;;;;;;8.30;4.00;;;14.00;1.00;;;;;;4984483;28;20216;-73
2023/06/13 02:38:06;;;;;;;4.38;3.65;;;14.00;1.00;;;;;;4986465;28;20671;-74
2023/06/13 02:40:32;;;;;;;4.07;3.65;;;13.90;1.00;;;;;;4986371;28;20667;-75
2023/06/13 02:43:00;;;;;;;3.67;3.38;;;13.70;1.00;;;;;;4985920;28;20275;-75
2023/06/13 02:45:25;;;;;;;5.05;3.33;;;13.90;1.00;;;;;;4985628;28;20692;-75
2023/06/13 02:47:52;;;;;;;4.00;3.40;;;13.90;1.00;;;;;;4986028;28;20243;-74
2023/06/13 02:50:17;;;;;;;4.22;3.63;;;13.80;1.00;;;;;;4986627;28;20183;-75
2023/06/13 02:52:43;;;;;;;4.95;3.53;;;13.80;1.00;;;;;;4986307;28;20543;-72
2023/06/13 02:55:10;;;;;;;3.95;3.60;;;13.80;1.00;;;;;;4985669;28;20690;-74
2023/06/13 02:57:38;;;;;;;3.90;3.50;;;13.90;1.00;;;;;;4986080;28;20200;-75
2023/06/13 03:00:09;;;;;;;4.45;3.65;;;14.00;1.00;;;;;;4986045;28;20269;-73
2023/06/13 03:02:38;;;;;;;4.75;4.03;;;14.00;1.00;;;;;;4985893;28;20200;-75
2023/06/13 03:05:09;;;;;;;4.70;3.78;;;13.90;1.00;;;;;;4985388;28;20185;-75
2023/06/13 03:07:35;;;;;;;4.80;3.75;;;13.90;1.00;;;;;;4985881;28;20255;-74
2023/06/13 03:10:03;;;;;;;5.05;3.80;;;13.80;1.00;;;;;;4986251;28;20188;-74
2023/06/13 03:12:29;;;;;;;4.13;3.40;;;13.60;1.00;;;;;;4985953;28;20188;-73
2023/06/13 03:14:55;;;;;;;6.50;3.80;;;13.50;1.00;;;;;;4985600;28;20214;-72
2023/06/13 03:17:21;;;;;;;4.70;3.63;;;13.40;1.00;;;;;;4985808;28;20282;-75
2023/06/13 03:19:47;;;;;;;4.68;3.90;;;13.30;1.00;;;;;;4986293;28;20184;-74
2023/06/13 03:22:14;;;;;;;5.28;3.83;;;13.20;1.00;;;;;;4987046;28;20187;-73
2023/06/13 03:24:44;;;;;;;4.00;3.67;;;13.20;1.00;;;;;;4989794;28;20264;-74
2023/06/13 03:27:12;;;;;;;5.78;3.75;;;13.30;1.00;;;;;;4989765;28;20200;-75
2023/06/13 03:29:41;;;;;;;4.35;3.40;;;13.50;1.00;;;;;;4990301;28;20184;-73
2023/06/13 03:32:11;;;;;;;3.97;3.63;;;13.60;1.00;;;;;;4989859;28;20191;-75
2023/06/13 03:34:38;;;;;;;3.97;3.63;;;13.70;1.00;;;;;;4989457;28;20212;-73
2023/06/13 03:37:06;;;;;;;6.35;3.92;;;13.80;1.00;;;;;;4989176;28;20246;-73
2023/06/13 03:39:31;;;;;;;4.25;3.80;;;13.90;1.00;;;;;;4989002;28;20234;-76
2023/06/13 03:41:57;;;;;;;3.80;3.40;;;13.90;1.00;;;;;;4990028;28;20177;-75
2023/06/13 03:44:23;;;;;;;4.38;3.97;;;13.90;1.00;;;;;;4989215;28;20191;-75
2023/06/13 03:46:48;;;;;;;5.47;3.80;;;13.80;1.00;;;;;;4989238;28;20702;-73
2023/06/13 03:49:14;;;;;;;4.50;4.10;;;13.80;1.00;;;;;;4989670;28;20184;-73
2023/06/13 03:51:40;;;;;;;4.43;3.97;;;13.80;1.00;;;;;;4988101;28;20294;-74
2023/06/13 03:54:05;;;;;;;4.75;3.90;;;13.80;1.00;;;;;;4989590;28;20239;-72
2023/06/13 03:56:31;;;;;;;6.28;4.18;;;13.90;1.00;;;;;;4988778;28;20290;-73
2023/06/13 03:58:56;;;;;;;4.15;3.75;;;14.00;1.00;;;;;;4989522;28;20203;-74
2023/06/13 04:01:22;;;;;;;5.50;3.75;;;14.10;1.00;;;;;;4989275;28;20278;-74
2023/06/13 04:03:48;;;;;;;4.30;3.90;;;14.20;1.00;;;;;;4989497;28;20180;-74
2023/06/13 04:06:13;;;;;;;5.43;3.90;;;14.20;1.00;;;;;;4988989;28;20192;-76
2023/06/13 04:08:40;;;;;;;4.30;3.90;;;14.20;1.00;;;;;;4989374;28;20715;-73
2023/06/13 04:11:05;;;;;;;5.40;4.03;;;14.30;1.00;;;;;;4988890;28;20180;-74
2023/06/13 04:13:31;;;;;;;5.82;3.95;;;14.40;1.00;;;;;;4989155;28;20199;-76
2023/06/13 04:15:57;;;;;;;6.10;4.60;;;14.40;1.00;;;;;;4988515;28;20208;-75
2023/06/13 04:18:23;;;;;;;5.15;4.63;;;14.40;1.00;;;;;;4989190;28;20254;-74
2023/06/13 04:20:51;;;;;;;4.93;4.40;;;14.40;1.00;;;;;;4989349;28;20196;-74
2023/06/13 04:23:17;;;;;;;4.88;4.00;;;14.50;1.00;;;;;;4988972;28;20191;-74
2023/06/13 04:25:43;;;;;;;6.03;4.45;;;14.50;1.00;;;;;;4988758;28;20732;-75
2023/06/13 04:28:10;;;;;;;4.43;4.03;;;14.60;1.00;;;;;;4988615;28;20304;-74
2023/06/13 04:30:36;;;;;;;4.20;3.80;;;14.70;1.00;;;;;;4989492;28;20188;-75
2023/06/13 04:33:05;;;;;;;4.72;4.30;;;14.80;1.00;;;;;;4988507;28;20188;-73
2023/06/13 04:35:37;;;;;;;4.50;3.90;;;14.90;1.00;;;;;;4987173;28;20208;-74
2023/06/13 04:38:04;;;;;;;4.93;3.95;;;14.80;1.00;;;;;;4987921;28;20235;-73
2023/06/13 04:40:31;;;;;;;4.78;4.38;;;14.60;1.00;;;;;;4988899;28;20179;-74
2023/06/13 04:42:58;;;;;;;4.28;3.70;;;14.70;1.00;;;;;;4988699;28;20239;-73
2023/06/13 04:45:24;;;;;;;5.28;3.53;;;14.90;1.00;;;;;;4988529;28;20202;-73
2023/06/13 04:47:51;;;;;;;4.63;3.90;;;15.10;1.00;;;;;;4988251;28;20312;-75
2023/06/13 04:50:19;;;;;;;4.70;3.72;;;15.40;1.00;;;;;;4989484;28;20180;-74
2023/06/13 04:52:45;;;;;;;4.43;3.80;;;15.60;1.00;;;;;;4988391;28;20191;-74
2023/06/13 04:55:11;;;;;;;4.40;3.97;;;15.90;1.00;;;;;;4988195;28;20212;-75
2023/06/13 04:57:36;;;;;;;4.70;3.80;;;16.30;1.00;;;;;;4988198;28;20210;-75
2023/06/13 05:00:06;;;;;;;5.93;3.88;;;17.70;1.00;;;;;;4988660;28;20251;-74
2023/06/13 05:02:34;;;;;;;3.83;3.22;;;19.10;1.00;;;;;;4988007;28;20203;-74
2023/06/13 05:05:02;;;;;;;4.45;3.60;;;19.90;1.00;;;;;;4987889;28;20192;-74
2023/06/13 05:07:30;;;;;;;5.00;3.45;;;19.90;1.00;;;;;;4987789;28;20299;-75
2023/06/13 05:09:55;;;;;;;4.38;3.35;;;20.10;1.00;;;;;;4988653;28;20655;-75
2023/06/13 05:12:22;;;;;;;4.65;3.50;;;20.80;1.00;;;;;;4988030;28;20751;-75
2023/06/13 05:14:48;;;;;;;3.40;3.10;;;21.80;1.00;;;;;;4986758;28;20663;-73
2023/06/13 05:17:14;;;;;;;4.43;2.97;;;23.10;1.00;;;;;;4987694;28;20223;-73
2023/06/13 05:19:41;;;;;;;4.03;3.60;;;23.40;1.00;;;;;;4987554;28;20185;-73
2023/06/13 05:22:07;;;;;;;4.70;3.63;;;22.50;1.00;;;;;;4986062;28;20251;-73
2023/06/13 05:24:33;;;;;;;3.72;3.33;;;22.30;1.00;;;;;;4986898;28;20172;-73
2023/06/13 05:26:59;;;;;;;4.93;4.32;;;22.50;1.00;;;;;;4987604;28;20206;-74
2023/06/13 05:29:26;;;;;;;3.92;3.47;;;22.00;1.00;;;;;;4987869;28;20184;-74
2023/06/13 05:31:52;;;;;;;3.95;3.60;;;22.00;1.00;;;;;;4987106;28;20196;-72
2023/06/13 05:34:18;;;;;;;4.60;4.20;;;21.70;1.00;;;;;;4987455;28;20656;-74
2023/06/13 05:36:45;;;;;;;4.30;4.00;;;22.40;1.00;;;;;;4987061;28;20180;-75
2023/06/13 05:39:12;;;;;;;4.50;4.10;;;23.50;1.00;;;;;;4987883;28;20236;-74
2023/06/13 05:41:39;;;;;;;4.85;3.40;;;24.70;1.00;;;;;;4986732;28;20176;-75
2023/06/13 05:44:05;;;;;;;4.38;3.40;;;25.50;1.00;;;;;;4986696;28;20176;-74
2023/06/13 05:46:31;;;;;;;4.10;3.72;;;26.20;1.00;;;;;;4986797;28;20593;-75
2023/06/13 05:48:57;;;;;;;4.78;3.65;;;26.60;1.00;;;;;;4987328;28;20212;-74
2023/06/13 05:51:22;;;;;;;4.88;3.97;;;27.40;1.00;;;;;;4987318;28;20184;-74
2023/06/13 05:53:48;;;;;;;5.95;3.80;;;27.70;1.00;;;;;;4987328;28;20184;-75
2023/06/13 05:56:13;;;;;;;5.05;3.72;;;28.20;1.00;;;;;;4986553;28;20595;-75
2023/06/13 05:58:39;;;;;;;6.90;3.95;;;27.90;1.00;;;;;;4987455;28;20239;-73
2023/06/13 06:01:05;;;;;;;4.47;3.60;;;27.40;1.00;;;;;;4987132;28;20740;-75
2023/06/13 06:03:31;;;;;;;3.90;3.60;;;28.20;1.00;;;;;;4986333;28;20211;-75
2023/06/13 06:05:57;;;;;;;4.25;3.65;;;28.70;1.00;;;;;;4984845;28;20188;-72
2023/06/13 06:08:23;;;;;;;4.80;3.70;;;29.30;1.00;;;;;;4985863;28;20207;-74
2023/06/13 06:10:49;;;;;;;3.38;3.10;;;29.40;1.00;;;;;;4986250;28;20203;-74
2023/06/13 06:13:14;;;;;;;3.60;3.30;;;29.70;1.00;;;;;;4986435;28;20199;-75
2023/06/13 06:15:40;;;;;;;4.15;3.30;;;30.30;1.00;;;;;;4986078;28;20212;-73
2023/06/13 06:18:06;;;;;;;3.72;3.42;;;30.70;1.00;;;;;;4986336;28;20869;-75
2023/06/13 06:20:32;;;;;;;6.70;3.45;;;30.80;1.00;;;;;;4985711;28;20206;-75
2023/06/13 06:22:58;;;;;;;3.47;3.17;;;31.40;1.00;;;;;;4985827;28;20188;-74
2023/06/13 06:25:23;;;;;;;4.35;3.20;;;31.90;1.00;;;;;;4985653;28;20884;-73
2023/06/13 06:27:52;;;;;;;3.90;3.50;;;32.20;1.00;;;;;;4986192;28;20203;-74
2023/06/13 06:30:18;;;;;;;4.28;3.22;;;32.40;1.00;;;;;;4984532;28;20195;-74
2023/06/13 06:32:44;;;;;;;3.58;3.38;;;32.50;1.00;;;;;;4985935;28;20188;-75
2023/06/13 06:35:14;;;;;;;6.30;3.70;;;33.00;1.00;;;;;;4986171;28;20212;-75
2023/06/13 06:37:40;;;;;;;3.65;3.35;;;33.00;1.00;;;;;;4985873;28;20208;-74
2023/06/13 06:40:08;;;;;;;3.83;3.40;;;32.90;1.00;;;;;;4987263;28;20587;-74
2023/06/13 06:42:33;;;;;;;3.88;3.58;;;32.90;1.00;;;;;;4984586;28;20517;-73
2023/06/13 06:44:59;;;;;;;4.43;3.30;;;33.00;1.00;;;;;;4986177;28;20188;-74
2023/06/13 06:47:25;;;;;;;5.47;3.42;;;33.50;1.00;;;;;;4985325;28;20208;-74
2023/06/13 06:49:50;;;;;;;4.05;3.65;;;33.90;1.00;;;;;;4985384;28;20549;-74
2023/06/13 06:52:16;;;;;;;4.35;2.92;;;34.30;1.00;;;;;;4985849;28;20184;-73
2023/06/13 06:54:41;;;;;;;3.67;3.10;;;34.30;1.00;;;;;;4985954;28;20215;-73
2023/06/13 06:57:08;;;;;;;3.38;3.08;;;34.20;1.00;;;;;;4986031;28;20196;-73
2023/06/13 06:59:34;;;;;;;3.60;3.30;;;34.80;1.00;;;;;;4985809;28;20263;-74
2023/06/13 07:01:59;;;;;;;3.78;3.47;;;35.20;1.00;;;;;;4985865;28;20207;-75
2023/06/13 07:04:25;;;;;;;3.60;3.30;;;35.00;1.00;;;;;;4986862;28;20180;-75
2023/06/13 07:06:51;;;;;;;5.18;3.10;;;35.00;1.00;;;;;;4985053;28;20198;-75
2023/06/13 07:09:17;;;;;;;3.60;3.08;;;34.90;1.00;;;;;;4985624;28;21421;-74
2023/06/13 07:11:42;;;;;;;3.38;3.10;;;35.50;1.00;;;;;;4985367;28;20183;-73
2023/06/13 07:14:08;;;;;;;5.22;3.55;;;36.00;1.00;;;;;;4985472;28;20271;-74
2023/06/13 07:16:34;;;;;;;4.28;3.50;;;36.00;1.00;;;;;;4984713;28;20575;-74
2023/06/13 07:18:59;;;;;;;3.28;3.03;;;36.20;1.00;;;;;;4985331;28;20206;-74
2023/06/13 07:21:25;;;;;;;4.35;3.85;;;36.10;1.00;;;;;;4985217;28;20524;-74
2023/06/13 07:23:51;;;;;;;5.65;3.78;;;34.80;1.00;;;;;;4985379;28;20546;-74
2023/06/13 07:26:17;;;;;;;4.10;3.38;;;34.30;1.00;;;;;;4983216;28;20183;-74
2023/06/13 07:28:43;;;;;;;6.78;3.70;;;34.50;1.00;;;;;;4985913;28;21244;-74
2023/06/13 07:31:09;;;;;;;5.05;3.75;;;33.50;1.00;;;;;;4985524;28;20179;-74
2023/06/13 07:33:34;;;;;;;4.20;3.78;;;30.90;1.00;;;;;;4983847;28;20698;-73
2023/06/13 07:36:00;;;;;;;5.90;4.10;;;29.40;1.00;;;;;;4984334;28;20243;-74
2023/06/13 07:38:26;;;;;;;4.47;4.07;;;28.00;1.00;;;;;;4984768;28;20658;-72
2023/06/13 07:40:52;;;;;;;4.35;3.97;;;27.20;1.00;;;;;;4985660;28;20184;-73
2023/06/13 07:43:18;;;;;;;5.85;3.63;;;26.40;1.00;;;;;;4984826;28;20184;-74
2023/06/13 07:45:43;;;;;;;5.15;3.95;;;25.80;1.00;;;;;;4985458;28;20207;-72
2023/06/13 07:48:09;;;;;;;5.85;3.90;;;24.50;1.00;;;;;;4985638;28;20208;-73
2023/06/13 07:50:35;;;;;;;4.43;4.03;;;23.70;1.00;;;;;;4985846;28;20181;-72
2023/06/13 07:53:00;;;;;;;4.43;3.80;;;23.30;1.00;;;;;;4984943;28;20553;-73
2023/06/13 07:55:26;;;;;;;4.15;3.75;;;23.10;1.00;;;;;;4984251;28;20215;-75
2023/06/13 07:57:52;;;;;;;4.70;4.07;;;22.90;1.00;;;;;;4984807;28;20235;-73
2023/06/13 08:00:18;;;;;;;5.32;3.47;;;23.20;1.00;;;;;;4985284;28;20191;-74
2023/06/13 08:02:45;;;;;;;6.22;3.75;;;23.10;1.00;;;;;;4984869;28;20234;-74
2023/06/13 08:05:12;;;;;;;5.70;3.65;;;23.10;1.00;;;;;;4984102;28;20188;-74
2023/06/13 08:07:38;;;;;;;6.07;3.65;;;23.10;1.00;;;;;;4983854;28;20219;-75
2023/06/13 08:10:04;;;;;;;4.55;3.47;;;22.90;1.00;;;;;;4986457;28;20180;-75
2023/06/13 08:12:30;;;;;;;3.50;3.20;;;23.10;1.00;;;;;;4988452;28;20184;-72
2023/06/13 08:14:56;;;;;;;3.83;3.45;;;23.10;1.00;;;;;;4985637;28;20869;-74
2023/06/13 08:17:21;;;;;;;4.95;3.17;;;23.30;1.00;;;;;;4987144;28;20286;-73
2023/06/13 08:19:50;;;;;;;7.47;3.70;;;23.30;1.00;;;;;;4987583;28;20184;-74
2023/06/13 08:22:16;;;;;;;3.40;3.08;;;23.40;1.00;;;;;;4986031;28;20274;-73
2023/06/13 08:24:41;;;;;;;4.25;3.05;;;23.40;1.00;;;;;;4986208;28;20437;-75
2023/06/13 08:27:07;;;;;;;3.05;2.72;;;23.20;1.00;;;;;;4984682;28;20208;-73
2023/06/13 08:29:33;;;;;;;3.40;3.10;;;23.00;1.00;;;;;;4986828;28;20517;-74
2023/06/13 08:31:59;;;;;;;3.55;3.13;;;22.90;1.00;;;;;;4987230;28;20188;-73
2023/06/13 08:34:26;;;;;;;3.30;2.80;;;22.80;1.00;;;;;;4985977;28;20184;-74
2023/06/13 08:36:51;;;;;;;3.75;3.35;;;22.90;1.00;;;;;;4986979;28;20196;-75
2023/06/13 08:39:17;;;;;;;3.78;3.15;;;22.90;1.00;;;;;;4987596;28;20556;-71
2023/06/13 08:41:44;;;;;;;3.10;2.80;;;22.80;1.00;;;;;;4987455;28;20423;-73
2023/06/13 08:44:09;;;;;;;3.30;3.10;;;22.80;1.00;;;;;;4987494;28;20593;-73
2023/06/13 08:46:36;;;;;;;4.50;3.30;;;22.90;1.00;;;;;;4986786;28;20188;-74
2023/06/13 08:49:02;;;;;;;4.05;3.35;;;23.00;1.00;;;;;;4987365;28;20707;-73
2023/06/13 08:51:31;;;;;;;2.80;2.60;;;22.90;1.00;;;;;;4987347;28;20194;-74
2023/06/13 08:54:01;;;;;;;4.35;3.00;;;22.80;1.00;;;;;;4987339;28;20586;-74
2023/06/13 08:56:30;;;;;;;5.70;3.20;;;22.90;1.00;;;;;;4986262;28;20608;-74
2023/06/13 08:59:07;;;;;;;4.32;3.20;;;23.00;1.00;;;;;;4987122;28;20204;-74
2023/06/13 09:01:32;;;;;;;4.40;3.33;;;23.00;1.00;;;;;;4987449;28;20196;-74
2023/06/13 09:04:00;;;;;;;3.58;3.28;;;23.30;1.00;;;;;;4987017;28;20196;-73
2023/06/13 09:06:27;;;;;;;3.63;3.30;;;23.50;1.00;;;;;;4986260;28;20180;-74
2023/06/13 09:08:54;;;;;;;4.38;3.78;;;23.50;1.00;;;;;;4986803;28;20804;-74
2023/06/13 09:11:20;;;;;;;4.43;3.47;;;23.50;1.00;;;;;;4987148;28;20195;-73
2023/06/13 09:13:48;;;;;;;4.10;3.30;;;23.50;1.00;;;;;;4986595;28;20188;-74
2023/06/13 09:16:15;;;;;;;3.58;3.20;;;23.50;1.00;;;;;;4986182;28;20223;-75
2023/06/13 09:18:43;;;;;;;3.75;3.22;;;23.50;1.00;;;;;;4986842;28;20238;-73
2023/06/13 09:21:10;;;;;;;4.05;2.95;;;23.60;1.00;;;;;;4986617;28;20195;-75
2023/06/13 09:23:36;;;;;;;4.72;3.50;;;23.80;1.00;;;;;;4986233;28;20599;-75
2023/06/13 09:26:03;;;;;;;5.88;3.58;;;23.90;1.00;;;;;;4986065;28;20216;-75
2023/06/13 09:28:31;;;;;;;4.93;3.50;;;24.20;1.00;;;;;;4986503;28;20211;-74
2023/06/13 09:30:57;;;;;;;5.78;3.30;;;24.30;1.00;;;;;;4986621;28;20184;-74
2023/06/13 09:33:23;;;;;;;6.95;3.08;;;23.90;1.00;;;;;;4986545;28;20620;-73
2023/06/13 09:35:50;;;;;;;3.35;3.03;;;23.70;1.00;;;;;;4985935;28;20244;-73
2023/06/13 09:38:21;;;;;;;4.43;3.20;;;23.70;1.00;;;;;;4986082;28;20213;-75
2023/06/13 09:40:47;;;;;;;3.55;2.80;;;23.80;1.00;;;;;;4986808;28;20180;-73
2023/06/13 09:43:16;;;;;;;5.60;3.72;;;23.90;1.00;;;;;;4986142;28;20239;-72
2023/06/13 09:45:47;;;;;;;4.95;3.58;;;24.30;1.00;;;;;;4986467;28;20211;-72
2023/06/13 09:48:13;;;;;;;4.10;3.22;;;24.50;1.00;;;;;;4984918;28;20208;-72
2023/06/13 09:50:40;;;;;;;3.97;3.67;;;24.30;1.00;;;;;;4986450;28;20184;-73
2023/06/13 09:53:07;;;;;;;3.85;3.45;;;24.10;1.00;;;;;;4986230;28;20184;-72
2023/06/13 09:55:33;;;;;;;3.65;3.35;;;24.00;1.00;;;;;;4985868;28;20204;-73
2023/06/13 09:58:01;;;;;;;4.30;3.90;;;24.10;1.00;;;;;;4986123;28;20208;-75
2023/06/13 10:00:27;;;;;;;6.07;3.55;;;24.10;1.00;;;;;;4986376;28;20210;-72
2023/06/13 10:02:53;;;;;;;3.78;3.47;;;24.20;1.00;;;;;;4986381;28;20649;-72
2023/06/13 10:05:18;;;;;;;3.95;3.63;;;24.20;1.00;;;;;;4985934;28;20246;-73
2023/06/13 10:07:44;;;;;;;3.53;3.22;;;24.10;1.00;;;;;;4985963;28;20219;-72
2023/06/13 10:10:10;;;;;;;3.88;3.55;;;24.20;1.00;;;;;;4985791;28;20351;-72
2023/06/13 10:12:47;;;;;;;3.92;3.58;;;24.40;1.00;;;;;;4986183;28;20195;-72
2023/06/13 10:15:31;;;;;;;4.35;3.60;;;24.60;1.00;;;;;;4984769;28;20303;-73
2023/06/13 10:18:02;;;;;;;4.38;3.45;;;24.90;1.00;;;;;;5000785;28;20314;-74
2023/06/13 10:20:29;;;;;;;4.82;4.05;;;25.10;1.00;;;;;;4986097;28;20554;-73
2023/06/13 10:22:56;;;;;;;5.03;3.72;;;25.30;1.00;;;;;;4986147;28;20180;-73
2023/06/13 10:25:28;;;;;;;4.05;3.75;;;25.10;1.00;;;;;;4985290;28;21150;-72
2023/06/13 10:28:04;;;;;;;4.18;3.75;;;25.00;1.00;;;;;;4986012;28;20322;-72
2023/06/13 10:30:42;;;;;;;4.20;3.67;;;25.10;1.00;;;;;;4984809;28;20192;-73
2023/06/13 10:33:50;;;;;;;6.05;3.97;;;25.30;1.00;;;;;;4985271;28;20180;-75
2023/06/13 10:36:31;;;;;;;3.95;3.45;;;25.40;1.00;;;;;;4982839;28;20243;-73
2023/06/13 10:39:49;;;;;;;4.75;3.90;;;25.30;1.00;;;;;;4984034;28;20207;-72
2023/06/13 10:42:16;;;;;;;4.13;3.65;;;25.20;1.00;;;;;;4969321;28;20202;-75
2023/06/13 10:44:45;;;;;;;5.30;3.55;;;25.10;1.00;;;;;;4984794;28;20203;-73
2023/06/13 10:47:10;;;;;;;4.28;3.80;;;25.20;1.00;;;;;;4984919;28;20204;-74
2023/06/13 10:49:42;;;;;;;5.40;3.53;;;25.10;1.00;;;;;;4985011;28;20180;-74
2023/06/13 10:52:12;;;;;;;5.10;3.72;;;25.10;1.00;;;;;;4985496;28;20706;-73
2023/06/13 10:54:41;;;;;;;6.13;3.72;;;25.10;1.00;;;;;;4985090;28;20191;-73
2023/06/13 10:57:07;;;;;;;5.47;3.50;;;25.20;1.00;;;;;;4984840;28;20208;-72
2023/06/13 10:59:39;;;;;;;4.55;3.30;;;25.10;1.00;;;;;;4984773;28;20477;-72
2023/06/13 11:02:14;;;;;;;4.53;3.85;;;25.10;1.00;;;;;;4984860;28;20697;-74
2023/06/13 11:04:44;;;;;;;3.75;3.45;;;25.00;1.00;;;;;;4985152;28;20242;-72
2023/06/13 11:07:22;;;;;;;4.07;3.67;;;24.80;1.00;;;;;;4984777;28;20867;-74
2023/06/13 11:10:21;;;;;;;5.93;3.47;;;24.90;1.00;;;;;;4984847;28;20226;-72
2023/06/13 11:12:47;;;;;;;5.60;3.70;;;25.00;1.00;;;;;;4972755;28;20200;-72
2023/06/13 11:15:26;;;;;;;3.75;3.45;;;24.90;1.00;;;;;;4984222;28;20551;-72
2023/06/13 11:18:07;;;;;;;3.80;3.50;;;25.10;1.00;;;;;;4985079;28;20232;-73
2023/06/13 11:20:52;;;;;;;5.68;3.90;;;25.10;1.00;;;;;;4984857;28;20184;-73
2023/06/13 11:23:44;;;;;;;4.65;3.78;;;25.10;1.00;;;;;;4984693;28;20221;-72
2023/06/13 11:26:11;;;;;;;5.57;3.55;;;25.00;1.00;;;;;;4983948;28;21227;-74
2023/06/13 11:28:37;;;;;;;3.70;3.40;;;25.10;1.00;;;;;;4984570;28;20687;-72
2023/06/13 11:31:05;;;;;;;3.70;3.13;;;24.90;1.00;;;;;;4984774;28;20192;-73
2023/06/13 11:33:45;;;;;;;4.03;3.60;;;24.70;1.00;;;;;;4985231;28;20180;-71
2023/06/13 11:36:11;;;;;;;4.70;3.65;;;24.50;1.00;;;;;;4984034;28;20636;-73
2023/06/13 11:38:43;;;;;;;4.40;3.65;;;24.30;1.00;;;;;;4984534;28;20206;-72
2023/06/13 11:41:10;;;;;;;4.03;3.63;;;24.20;1.00;;;;;;4984605;28;20191;-73
2023/06/13 11:43:36;;;;;;;4.07;3.70;;;24.20;1.00;;;;;;4986947;28;20180;-73
2023/06/13 11:46:04;;;;;;;5.13;3.42;;;24.50;1.00;;;;;;4988406;28;20219;-73
2023/06/13 11:48:30;;;;;;;7.35;3.80;;;24.70;1.00;;;;;;4988849;28;20220;-73
2023/06/13 11:51:30;;;;;;;7.40;3.88;;;24.70;1.00;;;;;;4988844;28;20192;-73
2023/06/13 11:53:59;;;;;;;4.38;3.97;;;24.50;1.00;;;;;;4976445;28;20205;-72
2023/06/13 11:56:25;;;;;;;4.07;3.78;;;24.40;1.00;;;;;;4987841;28;20212;-73
2023/06/13 11:58:53;;;;;;;3.80;3.50;;;24.40;1.00;;;;;;4988658;28;20215;-71
2023/06/13 12:01:21;;;;;;;4.43;3.80;;;24.50;1.00;;;;;;4988523;28;20199;-73
2023/06/13 12:03:48;;;;;;;4.35;3.50;;;24.70;1.00;;;;;;4984335;28;20187;-73
2023/06/13 12:06:14;;;;;;;4.82;3.55;;;24.70;1.00;;;;;;4986257;28;20192;-72
2023/06/13 12:08:51;;;;;;;3.70;3.40;;;24.50;1.00;;;;;;4987141;28;20236;-73
2023/06/13 12:11:18;;;;;;;4.10;3.70;;;24.60;1.00;;;;;;4987109;28;20195;-74
2023/06/13 12:13:58;;;;;;;4.00;3.58;;;24.80;1.00;;;;;;4988495;28;20592;-73
2023/06/13 12:16:31;;;;;;;4.38;3.72;;;25.00;1.00;;;;;;4987258;28;20298;-73
2023/06/13 12:18:59;;;;;;;6.90;3.85;;;25.10;1.00;;;;;;4987506;28;20742;-70
2023/06/13 12:21:29;;;;;;;5.75;3.38;;;25.10;1.00;;;;;;4987435;28;20176;-72
2023/06/13 12:24:00;;;;;;;5.32;3.88;;;25.10;1.00;;;;;;4988137;28;20177;-73
2023/06/13 12:26:28;;;;;;;5.25;3.65;;;24.90;1.00;;;;;;4987552;28;20192;-71
2023/06/13 12:28:59;;;;;;;6.18;3.75;;;24.70;1.00;;;;;;4988171;28;20275;-74
2023/06/13 12:31:37;;;;;;;5.13;3.70;;;24.70;1.00;;;;;;4988220;28;20184;-73
2023/06/13 12:34:13;;;;;;;4.57;3.70;;;24.90;1.00;;;;;;4988048;28;20184;-71
2023/06/13 12:36:44;;;;;;;4.55;3.90;;;25.20;1.00;;;;;;4987679;28;20315;-73
2023/06/13 12:39:14;;;;;;;5.68;4.10;;;25.30;1.00;;;;;;4987752;28;20637;-73
2023/06/13 12:41:50;;;;;;;4.82;3.50;;;25.50;1.00;;;;;;4988367;28;20183;-71
2023/06/13 12:44:19;;;;;;;3.72;3.42;;;25.70;1.00;;;;;;4987563;28;20184;-72
2023/06/13 12:46:45;;;;;;;4.68;3.75;;;26.10;1.00;;;;;;4987521;28;20200;-74
2023/06/13 12:49:13;;;;;;;7.05;3.60;;;26.30;1.00;;;;;;4987548;28;20188;-73
2023/06/13 12:51:43;;;;;;;3.60;3.22;;;26.20;1.00;;;;;;4988382;28;20211;-74
2023/06/13 12:54:20;;;;;;;4.28;3.88;;;25.90;1.00;;;;;;4986999;28;20267;-73
2023/06/13 12:57:00;;;;;;;5.50;4.13;;;25.50;1.00;;;;;;4987057;28;20288;-74
2023/06/13 12:59:33;;;;;;;4.32;3.67;;;25.30;1.00;;;;;;4987414;28;20184;-75
2023/06/13 13:02:02;;;;;;;4.32;3.45;;;24.90;1.00;;;;;;4988047;28;20199;-72
2023/06/13 13:04:32;;;;;;;4.20;3.78;;;24.80;1.00;;;;;;4987376;28;20678;-73